WICT2: Wichita River At Wichita Falls, TX

                                SHEF ID:       WICT2     Wichita Rv at Wichita Falls, TX
STATION TYPE:
Regulating: Stage = 18.50, Flow = 5482

PRECIP STAGE RIV-FLOW WTR-TEMP CONDUCT BAT-LOAD
in ft cfs F umho/cm volt
Ccp-Rev Ccp-Rev Ccp-Rev Ccp-Rev Ccp-Rev Ccp-Rev
(America/Chicago)
08/30 00:00 ---- 2.29 44 84.99 6904 11.90
08/30 01:00 ---- 2.31 46 84.20 7481 11.88
08/30 02:00 ---- 2.28 43 83.52 8016 11.88
08/30 03:00 ---- 2.29 44 82.87 7987 11.81
08/30 04:00 ---- 2.29 44 82.31 7027 11.83
08/30 05:00 ---- 2.31 46 81.81 6905 11.83
08/30 06:00 ---- 2.29 44 81.39 7163 11.81
08/30 07:00 ---- 2.29 44 80.98 6766 11.80
08/30 08:00 ---- 2.28 43 80.71 6670 11.81
08/30 09:00 ---- 2.29 44 80.67 7203 11.85
08/30 10:00 ---- 2.27 43 81.05 6680 12.23
08/30 11:00 ---- 2.26 42 81.84 6524 12.70
08/30 12:00 ---- 2.25 41 83.01 7864 12.59
08/30 13:00 ---- 2.27 43 84.49 6611 12.41
08/30 14:00 ---- 2.27 43 85.93 6647 12.10
08/30 15:00 ---- 2.28 43 87.08 7157 12.16
08/30 16:00 ---- 2.29 44 87.87 7087 12.14
08/30 17:00 ---- 2.29 44 88.47 6943 12.04
08/30 18:00 ---- 2.30 45 88.59 6829 11.98
08/30 19:00 ---- 2.29 44 88.21 6814 11.94
08/30 20:00 ---- 2.30 45 87.51 7001 11.93
08/30 21:00 ---- 2.30 45 86.83 7879 11.93
08/30 22:00 ---- 2.30 45 86.11 7887 11.91
08/30 23:00 ---- 2.29 44 85.32 7041 11.91
Data processed at Mon 31Aug2026 04:58 GMT

NOTICE: If you are parsing this page

Please convert to using our Data API. Starting early 2026 we will be migrating to: https://water.usace.army.mil with modern pages rendered in JavaScript. When this migration completes you will no longer be able to scrape this page! CWMSDataAPI (CDA)

Timeseries IDs (TSIDs)

TSIDs used from left to right in the data table
WFAL.Precip-Inc.Total.1Hour.1Hour.Ccp-Rev
WFAL.Stage.Inst.1Hour.0.Ccp-Rev
WFAL.Flow.Inst.1Hour.0.Ccp-Rev
WFAL.Temp-Water.Inst.1Hour.0.Ccp-Rev
WFAL.Cond-Water.Inst.1Hour.0.Ccp-Rev
WFAL.Volt-Battery Load.Inst.1Hour.0.Ccp-Rev

                            

All information presented herein is the property of the government of the United States of America and may be revised or deleted at any time without prior notice. Dissemination of this information without the expressed written consent of the Public Affairs Office, Tulsa District U.S. Army Corps of Engineers is strictly prohibited. These data are gathered electronically and, as presented, have NOT undergone any form of quality control. These data are NOT guaranteed to be valid or correct.